Wind From: 11-12-2017 04:25 Until: 16:00 warning for: Wind Level: Orange info button

Power and phone distribution networks may be disrupted for relatively long periods., Roofs and chimneys can be damaged. , Tree branches may break. , Vehicles can be deported. , Traffic may be disrupted, particularly on secondary roads in forest areas. Limit your trips. , Limit your speed in highway driving, especially if you drive a vehicle or hitch sensitive to wind. , Do not go for walks in forests or along the coast., In town, be vigilant against possible falling objects., Do not work on roofs and do not touch any electrical line fallen on the ground., Store or secure sensitive objects to wind or likely to be damaged., Always install power generators outside buildings. 


Meteo18 Weather Cam more information Meteo18 Weather Cam


Thunder radar more information blitzortung!


Rain radar more information rain snow radar


Visit our other weather sites:

Template documentation
and downloads

And another site



Weather Underground History page Text

Daily Summary for February 17, 2017 Units:  Both    English   Metric
« Previous Day
Next Day »
Daily Weekly Monthly Yearly Custom
  High: Low: Average:
Temperature: 49.5 °F /  9.7 °C 40.6 °F /  4.8 °C 44.1 °F /  6.7 °C
Dew Point: 46.9 °F /  8.3 °C 38.3 °F /  3.5 °C 42.4 °F /  5.8 °C
Humidity: 98 % 81 % 94 %
Wind Speed: 4 mph /  6.4 km/h - 1 mph /  1.6 km/h
Wind Gust: 7 mph /  11.3 km/h - -
Wind:- - SSE
Pressure: 30.4 in /  1030.7 hPa 30.4 in /  1028.0 hPa -
Precipitation: 0.02 in /  0.5 mm    
Historical Graphs
 
 
Tabular Data for February 17, 2017
Time Temperature Dew Point Pressure Wind Wind Speed Wind Gust Humidity Rainfall Rate (Hourly)
00:02 47.7 °F /  8.7 °C 46.9 °F /  8.3 °C 30.4 in /  1030.4 hPa Calm     97 % 0 in /  0.0 mm
00:12 47.5 °F /  8.6 °C 46.8 °F /  8.2 °C 30.4 in /  1030.4 hPa Calm     97 % 0 in /  0.0 mm
00:17 46.9 °F /  8.3 °C 45.9 °F /  7.7 °C 30.4 in /  1030.7 hPa Calm     96 % 0 in /  0.0 mm
00:22 46.6 °F /  8.1 °C 45.5 °F /  7.5 °C 30.4 in /  1030.7 hPa Calm     96 % 0 in /  0.0 mm
00:32 45.9 °F /  7.7 °C 44.8 °F /  7.1 °C 30.4 in /  1030.7 hPa Calm     96 % 0 in /  0.0 mm
00:42 45.9 °F /  7.7 °C 45.1 °F /  7.3 °C 30.4 in /  1030.7 hPa Calm     97 % 0 in /  0.0 mm
00:52 46 °F /  7.8 °C 45.3 °F /  7.4 °C 30.4 in /  1030.4 hPa Calm     97 % 0 in /  0.0 mm
00:57 46.2 °F /  7.9 °C 45.5 °F /  7.5 °C 30.4 in /  1030.4 hPa Calm     97 % 0 in /  0.0 mm
01:02 46 °F /  7.8 °C 45.3 °F /  7.4 °C 30.4 in /  1030.4 hPa Calm     97 % 0 in /  0.0 mm
01:12 46 °F /  7.8 °C 45.3 °F /  7.4 °C 30.4 in /  1030.7 hPa Calm     97 % 0 in /  0.0 mm
01:17 46 °F /  7.8 °C 45.3 °F /  7.4 °C 30.4 in /  1030.4 hPa Calm     97 % 0 in /  0.0 mm
01:22 45.7 °F /  7.6 °C 45 °F /  7.2 °C 30.4 in /  1030.4 hPa Calm     97 % 0 in /  0.0 mm
01:27 45.7 °F /  7.6 °C 45 °F /  7.2 °C 30.4 in /  1030.4 hPa Calm     97 % 0 in /  0.0 mm
01:32 45.7 °F /  7.6 °C 45 °F /  7.2 °C 30.4 in /  1030.4 hPa Calm     97 % 0 in /  0.0 mm
01:37 45.7 °F /  7.6 °C 45 °F /  7.2 °C 30.4 in /  1030.4 hPa Calm   1 mph /  1.6 km/h 97 % 0 in /  0.0 mm
01:42 45.5 °F /  7.5 °C 44.8 °F /  7.1 °C 30.4 in /  1030.4 hPa Calm   1 mph /  1.6 km/h 97 % 0 in /  0.0 mm
01:47 45.1 °F /  7.3 °C 44.4 °F /  6.9 °C 30.4 in /  1030.4 hPa Calm   1 mph /  1.6 km/h 97 % 0 in /  0.0 mm
01:57 44.4 °F /  6.9 °C 43.3 °F /  6.3 °C 30.4 in /  1030.4 hPa Calm   2 mph /  3.2 km/h 96 % 0 in /  0.0 mm
02:02 43.5 °F /  6.4 °C 42.4 °F /  5.8 °C 30.4 in /  1030.4 hPa Calm   2 mph /  3.2 km/h 96 % 0 in /  0.0 mm
02:07 44.1 °F /  6.7 °C 43.3 °F /  6.3 °C 30.4 in /  1030.0 hPa Calm     97 % 0 in /  0.0 mm
02:17 44.1 °F /  6.7 °C 43.3 °F /  6.3 °C 30.4 in /  1030.0 hPa Calm     97 % 0 in /  0.0 mm
02:22 44.1 °F /  6.7 °C 43.3 °F /  6.3 °C 30.4 in /  1030.4 hPa Calm     97 % 0 in /  0.0 mm
02:32 43.5 °F /  6.4 °C 42.8 °F /  6.0 °C 30.4 in /  1030.4 hPa Calm     97 % 0.01 in /  0.3 mm
02:42 43.9 °F /  6.6 °C 43.2 °F /  6.2 °C 30.4 in /  1030.4 hPa Calm     97 % 0.01 in /  0.3 mm
02:47 43.9 °F /  6.6 °C 43.3 °F /  6.3 °C 30.4 in /  1030.0 hPa Calm     98 % 0.01 in /  0.3 mm
02:52 43.5 °F /  6.4 °C 42.8 °F /  6.0 °C 30.4 in /  1030.0 hPa Calm     97 % 0.01 in /  0.3 mm
03:02 43.7 °F /  6.5 °C 43 °F /  6.1 °C 30.4 in /  1030.0 hPa Calm     97 % 0.01 in /  0.3 mm
03:07 44.2 °F /  6.8 °C 43.7 °F /  6.5 °C 30.4 in /  1030.0 hPa Calm     98 % 0.01 in /  0.3 mm
03:12 44.1 °F /  6.7 °C 43.5 °F /  6.4 °C 30.4 in /  1030.0 hPa Calm     98 % 0.01 in /  0.3 mm
03:17 44.4 °F /  6.9 °C 43.9 °F /  6.6 °C 30.4 in /  1030.0 hPa Calm     98 % 0.01 in /  0.3 mm
03:22 44.6 °F /  7.0 °C 44.1 °F /  6.7 °C 30.4 in /  1030.0 hPa Calm     98 % 0.01 in /  0.3 mm
03:27 43.9 °F /  6.6 °C 43.2 °F /  6.2 °C 30.4 in /  1030.0 hPa Calm     97 % 0 in /  0.0 mm
03:32 43.5 °F /  6.4 °C 42.8 °F /  6.0 °C 30.4 in /  1030.0 hPa Calm     97 % 0 in /  0.0 mm
03:37 43.7 °F /  6.5 °C 43 °F /  6.1 °C 30.4 in /  1030.0 hPa Calm     97 % 0 in /  0.0 mm
03:42 44.1 °F /  6.7 °C 43.3 °F /  6.3 °C 30.4 in /  1030.0 hPa Calm   1 mph /  1.6 km/h 97 % 0 in /  0.0 mm
03:47 44.1 °F /  6.7 °C 43.3 °F /  6.3 °C 30.4 in /  1030.0 hPa North 1 mph /  1.6 km/h 1 mph /  1.6 km/h 97 % 0 in /  0.0 mm
03:52 44.2 °F /  6.8 °C 43.5 °F /  6.4 °C 30.4 in /  1029.7 hPa NNE 1 mph /  1.6 km/h 1 mph /  1.6 km/h 97 % 0 in /  0.0 mm
03:57 43.9 °F /  6.6 °C 43.2 °F /  6.2 °C 30.4 in /  1029.7 hPa North 1 mph /  1.6 km/h 2 mph /  3.2 km/h 97 % 0 in /  0.0 mm
04:02 43.5 °F /  6.4 °C 42.8 °F /  6.0 °C 30.4 in /  1029.7 hPa NNW 1 mph /  1.6 km/h 2 mph /  3.2 km/h 97 % 0 in /  0.0 mm
04:12 43.5 °F /  6.4 °C 42.8 °F /  6.0 °C 30.4 in /  1029.7 hPa North 1 mph /  1.6 km/h 2 mph /  3.2 km/h 97 % 0 in /  0.0 mm
04:17 43.5 °F /  6.4 °C 42.8 °F /  6.0 °C 30.4 in /  1029.3 hPa Calm   2 mph /  3.2 km/h 97 % 0 in /  0.0 mm
04:22 43.9 °F /  6.6 °C 43.2 °F /  6.2 °C 30.4 in /  1029.3 hPa NNW 1 mph /  1.6 km/h 2 mph /  3.2 km/h 97 % 0 in /  0.0 mm
04:32 43.5 °F /  6.4 °C 42.8 °F /  6.0 °C 30.4 in /  1029.3 hPa Calm   3 mph /  4.8 km/h 97 % 0 in /  0.0 mm
04:42 42.8 °F /  6.0 °C 42.1 °F /  5.6 °C 30.4 in /  1029.3 hPa Calm   2 mph /  3.2 km/h 97 % 0 in /  0.0 mm
04:47 42.6 °F /  5.9 °C 41.9 °F /  5.5 °C 30.4 in /  1029.7 hPa Calm   2 mph /  3.2 km/h 97 % 0 in /  0.0 mm
04:52 42.4 °F /  5.8 °C 41.7 °F /  5.4 °C 30.4 in /  1029.7 hPa Calm   2 mph /  3.2 km/h 97 % 0 in /  0.0 mm
04:57 42.3 °F /  5.7 °C 41.5 °F /  5.3 °C 30.4 in /  1029.7 hPa Calm   2 mph /  3.2 km/h 97 % 0 in /  0.0 mm
05:02 42.4 °F /  5.8 °C 41.7 °F /  5.4 °C 30.4 in /  1029.7 hPa Calm     97 % 0 in /  0.0 mm
05:07 42.4 °F /  5.8 °C 41.7 °F /  5.4 °C 30.4 in /  1029.7 hPa Calm     97 % 0 in /  0.0 mm
05:17 42.3 °F /  5.7 °C 41.5 °F /  5.3 °C 30.4 in /  1029.7 hPa Calm   1 mph /  1.6 km/h 97 % 0 in /  0.0 mm
05:22 42.3 °F /  5.7 °C 41.5 °F /  5.3 °C 30.4 in /  1029.7 hPa Calm   1 mph /  1.6 km/h 97 % 0 in /  0.0 mm
05:27 42.4 °F /  5.8 °C 41.7 °F /  5.4 °C 30.4 in /  1029.7 hPa Calm   1 mph /  1.6 km/h 97 % 0 in /  0.0 mm
05:32 42.6 °F /  5.9 °C 41.9 °F /  5.5 °C 30.4 in /  1029.7 hPa Calm   1 mph /  1.6 km/h 97 % 0 in /  0.0 mm
05:42 42.3 °F /  5.7 °C 41.5 °F /  5.3 °C 30.4 in /  1029.7 hPa Calm   1 mph /  1.6 km/h 97 % 0 in /  0.0 mm
05:47 42.4 °F /  5.8 °C 41.7 °F /  5.4 °C 30.4 in /  1029.3 hPa Calm     97 % 0 in /  0.0 mm
05:52 42.3 °F /  5.7 °C 41.5 °F /  5.3 °C 30.4 in /  1029.3 hPa Calm     97 % 0 in /  0.0 mm
05:57 42.3 °F /  5.7 °C 41.5 °F /  5.3 °C 30.4 in /  1029.3 hPa Calm     97 % 0 in /  0.0 mm
06:02 42.1 °F /  5.6 °C 41.4 °F /  5.2 °C 30.4 in /  1029.7 hPa Calm     97 % 0 in /  0.0 mm
06:12 42.6 °F /  5.9 °C 42.1 °F /  5.6 °C 30.4 in /  1029.3 hPa Calm     98 % 0 in /  0.0 mm
06:17 42.6 °F /  5.9 °C 42.1 °F /  5.6 °C 30.4 in /  1029.3 hPa Calm     98 % 0 in /  0.0 mm
06:22 42.4 °F /  5.8 °C 41.7 °F /  5.4 °C 30.4 in /  1029.3 hPa Calm     97 % 0 in /  0.0 mm
06:32 42.3 °F /  5.7 °C 41.5 °F /  5.3 °C 30.4 in /  1029.3 hPa Calm     97 % 0 in /  0.0 mm
06:42 42.3 °F /  5.7 °C 41.5 °F /  5.3 °C 30.4 in /  1029.3 hPa Calm     97 % 0 in /  0.0 mm
06:52 42.4 °F /  5.8 °C 41.7 °F /  5.4 °C 30.4 in /  1029.3 hPa Calm     97 % 0 in /  0.0 mm
07:02 42.3 °F /  5.7 °C 41.5 °F /  5.3 °C 30.4 in /  1029.3 hPa Calm     97 % 0 in /  0.0 mm
07:12 42.1 °F /  5.6 °C 41.4 °F /  5.2 °C 30.4 in /  1029.3 hPa Calm     97 % 0 in /  0.0 mm
07:17 42.1 °F /  5.6 °C 41.4 °F /  5.2 °C 30.4 in /  1029.3 hPa Calm     97 % 0 in /  0.0 mm
07:22 42.1 °F /  5.6 °C 41.4 °F /  5.2 °C 30.4 in /  1029.3 hPa Calm     97 % 0 in /  0.0 mm
07:32 41.7 °F /  5.4 °C 41 °F /  5.0 °C 30.4 in /  1029.3 hPa Calm     97 % 0 in /  0.0 mm
07:37 41.7 °F /  5.4 °C 41 °F /  5.0 °C 30.4 in /  1029.3 hPa Calm     97 % 0 in /  0.0 mm
07:42 41.7 °F /  5.4 °C 41 °F /  5.0 °C 30.4 in /  1029.3 hPa Calm   1 mph /  1.6 km/h 97 % 0 in /  0.0 mm
07:52 41.5 °F /  5.3 °C 40.8 °F /  4.9 °C 30.4 in /  1029.7 hPa Calm   2 mph /  3.2 km/h 97 % 0 in /  0.0 mm
07:57 41.5 °F /  5.3 °C 40.8 °F /  4.9 °C 30.4 in /  1029.7 hPa Calm     97 % 0 in /  0.0 mm
08:02 41.5 °F /  5.3 °C 40.8 °F /  4.9 °C 30.4 in /  1029.7 hPa Calm     97 % 0 in /  0.0 mm
08:12 41.5 °F /  5.3 °C 40.8 °F /  4.9 °C 30.4 in /  1029.7 hPa Calm     97 % 0 in /  0.0 mm
08:17 41.5 °F /  5.3 °C 41 °F /  5.0 °C 30.4 in /  1029.7 hPa Calm   1 mph /  1.6 km/h 98 % 0 in /  0.0 mm
08:22 41.5 °F /  5.3 °C 40.8 °F /  4.9 °C 30.4 in /  1029.7 hPa Calm   1 mph /  1.6 km/h 97 % 0 in /  0.0 mm
08:27 41.5 °F /  5.3 °C 40.8 °F /  4.9 °C 30.4 in /  1029.7 hPa Calm   1 mph /  1.6 km/h 97 % 0 in /  0.0 mm
08:32 41.5 °F /  5.3 °C 40.8 °F /  4.9 °C 30.4 in /  1029.7 hPa Calm     97 % 0 in /  0.0 mm
08:37 41.5 °F /  5.3 °C 40.8 °F /  4.9 °C 30.4 in /  1029.7 hPa Calm     97 % 0 in /  0.0 mm
08:42 41.4 °F /  5.2 °C 40.6 °F /  4.8 °C 30.4 in /  1029.7 hPa Calm     97 % 0 in /  0.0 mm
08:47 41.4 °F /  5.2 °C 40.6 °F /  4.8 °C 30.4 in /  1030.0 hPa Calm     97 % 0 in /  0.0 mm
08:52 41.5 °F /  5.3 °C 40.8 °F /  4.9 °C 30.4 in /  1030.0 hPa Calm     97 % 0 in /  0.0 mm
08:57 41.5 °F /  5.3 °C 41 °F /  5.0 °C 30.4 in /  1030.0 hPa NNE 1 mph /  1.6 km/h   98 % 0 in /  0.0 mm
09:07 41.5 °F /  5.3 °C 41 °F /  5.0 °C 30.4 in /  1030.0 hPa NNE 1 mph /  1.6 km/h 3 mph /  4.8 km/h 98 % 0 in /  0.0 mm
09:12 41.5 °F /  5.3 °C 41 °F /  5.0 °C 30.4 in /  1030.0 hPa NNE 1 mph /  1.6 km/h 3 mph /  4.8 km/h 98 % 0 in /  0.0 mm
09:17 41.5 °F /  5.3 °C 41 °F /  5.0 °C 30.4 in /  1030.0 hPa Calm   2 mph /  3.2 km/h 98 % 0 in /  0.0 mm
09:22 41.5 °F /  5.3 °C 40.8 °F /  4.9 °C 30.4 in /  1030.0 hPa Calm   2 mph /  3.2 km/h 97 % 0 in /  0.0 mm
09:32 41.4 °F /  5.2 °C 40.6 °F /  4.8 °C 30.4 in /  1030.0 hPa Calm   2 mph /  3.2 km/h 97 % 0 in /  0.0 mm
09:37 41.4 °F /  5.2 °C 40.6 °F /  4.8 °C 30.4 in /  1030.0 hPa Calm   2 mph /  3.2 km/h 97 % 0 in /  0.0 mm
09:42 41.5 °F /  5.3 °C 40.8 °F /  4.9 °C 30.4 in /  1030.0 hPa Calm   2 mph /  3.2 km/h 97 % 0 in /  0.0 mm
09:47 41.4 °F /  5.2 °C 40.6 °F /  4.8 °C 30.4 in /  1030.0 hPa NNE 2 mph /  3.2 km/h   97 % 0 in /  0.0 mm
09:52 41.5 °F /  5.3 °C 40.8 °F /  4.9 °C 30.4 in /  1030.0 hPa NNE 2 mph /  3.2 km/h 2 mph /  3.2 km/h 97 % 0 in /  0.0 mm
09:57 41.5 °F /  5.3 °C 40.8 °F /  4.9 °C 30.4 in /  1030.0 hPa NE 2 mph /  3.2 km/h 2 mph /  3.2 km/h 97 % 0 in /  0.0 mm
10:02 41.5 °F /  5.3 °C 40.8 °F /  4.9 °C 30.4 in /  1030.4 hPa NE 4 mph /  6.4 km/h 4 mph /  6.4 km/h 97 % 0 in /  0.0 mm
10:12 41.7 °F /  5.4 °C 41.2 °F /  5.1 °C 30.4 in /  1030.4 hPa NE 4 mph /  6.4 km/h 6 mph /  9.7 km/h 98 % 0 in /  0.0 mm
10:17 41.9 °F /  5.5 °C 41.4 °F /  5.2 °C 30.4 in /  1030.4 hPa NE 2 mph /  3.2 km/h 6 mph /  9.7 km/h 98 % 0 in /  0.0 mm
10:22 41.9 °F /  5.5 °C 41.4 °F /  5.2 °C 30.4 in /  1030.4 hPa ENE 2 mph /  3.2 km/h 6 mph /  9.7 km/h 98 % 0 in /  0.0 mm
10:32 42.4 °F /  5.8 °C 41.9 °F /  5.5 °C 30.4 in /  1030.4 hPa ENE 2 mph /  3.2 km/h 5 mph /  8.0 km/h 98 % 0 in /  0.0 mm
10:42 42.3 °F /  5.7 °C 41.7 °F /  5.4 °C 30.4 in /  1030.4 hPa Calm   4 mph /  6.4 km/h 98 % 0 in /  0.0 mm
10:47 42.4 °F /  5.8 °C 41.9 °F /  5.5 °C 30.4 in /  1030.4 hPa ENE 2 mph /  3.2 km/h 4 mph /  6.4 km/h 98 % 0 in /  0.0 mm
10:52 42.4 °F /  5.8 °C 41.9 °F /  5.5 °C 30.4 in /  1030.4 hPa NE 3 mph /  4.8 km/h 4 mph /  6.4 km/h 98 % 0 in /  0.0 mm
11:02 42.4 °F /  5.8 °C 41.9 °F /  5.5 °C 30.4 in /  1030.4 hPa NE 1 mph /  1.6 km/h 5 mph /  8.0 km/h 98 % 0 in /  0.0 mm
11:12 42.3 °F /  5.7 °C 41.5 °F /  5.3 °C 30.4 in /  1030.4 hPa ENE 3 mph /  4.8 km/h 5 mph /  8.0 km/h 97 % 0 in /  0.0 mm
11:17 42.3 °F /  5.7 °C 41.5 °F /  5.3 °C 30.4 in /  1030.4 hPa NNE 3 mph /  4.8 km/h 6 mph /  9.7 km/h 97 % 0 in /  0.0 mm
11:22 42.3 °F /  5.7 °C 41.5 °F /  5.3 °C 30.4 in /  1030.4 hPa NE 3 mph /  4.8 km/h 6 mph /  9.7 km/h 97 % 0 in /  0.0 mm
11:32 42.3 °F /  5.7 °C 41.7 °F /  5.4 °C 30.4 in /  1030.7 hPa Calm   5 mph /  8.0 km/h 98 % 0 in /  0.0 mm
11:42 42.3 °F /  5.7 °C 41.7 °F /  5.4 °C 30.4 in /  1030.7 hPa North 2 mph /  3.2 km/h 6 mph /  9.7 km/h 98 % 0 in /  0.0 mm
11:52 42.4 °F /  5.8 °C 41.9 °F /  5.5 °C 30.4 in /  1030.7 hPa North 4 mph /  6.4 km/h 5 mph /  8.0 km/h 98 % 0 in /  0.0 mm
11:57 42.4 °F /  5.8 °C 41.9 °F /  5.5 °C 30.4 in /  1030.7 hPa NNE 3 mph /  4.8 km/h 5 mph /  8.0 km/h 98 % 0 in /  0.0 mm
12:02 42.6 °F /  5.9 °C 42.1 °F /  5.6 °C 30.4 in /  1030.4 hPa NW 1 mph /  1.6 km/h 5 mph /  8.0 km/h 98 % 0 in /  0.0 mm
12:12 42.6 °F /  5.9 °C 42.1 °F /  5.6 °C 30.4 in /  1030.4 hPa NE 1 mph /  1.6 km/h 6 mph /  9.7 km/h 98 % 0 in /  0.0 mm
12:17 43 °F /  6.1 °C 42.4 °F /  5.8 °C 30.4 in /  1030.4 hPa Calm   6 mph /  9.7 km/h 98 % 0 in /  0.0 mm
12:22 43 °F /  6.1 °C 42.4 °F /  5.8 °C 30.4 in /  1030.4 hPa North 1 mph /  1.6 km/h 6 mph /  9.7 km/h 98 % 0 in /  0.0 mm
12:27 43 °F /  6.1 °C 42.4 °F /  5.8 °C 30.4 in /  1030.4 hPa NE 2 mph /  3.2 km/h 6 mph /  9.7 km/h 98 % 0 in /  0.0 mm
12:32 43 °F /  6.1 °C 42.4 °F /  5.8 °C 30.4 in /  1030.4 hPa NNE 4 mph /  6.4 km/h 6 mph /  9.7 km/h 98 % 0 in /  0.0 mm
12:42 43.2 °F /  6.2 °C 42.6 °F /  5.9 °C 30.4 in /  1030.4 hPa NE 2 mph /  3.2 km/h 6 mph /  9.7 km/h 98 % 0 in /  0.0 mm
12:52 43.2 °F /  6.2 °C 42.4 °F /  5.8 °C 30.4 in /  1030.4 hPa NNE 3 mph /  4.8 km/h 7 mph /  11.3 km/h 97 % 0.01 in /  0.3 mm
12:57 43.3 °F /  6.3 °C 42.8 °F /  6.0 °C 30.4 in /  1030.4 hPa NE 3 mph /  4.8 km/h 7 mph /  11.3 km/h 98 % 0.01 in /  0.3 mm
13:02 43.2 °F /  6.2 °C 42.4 °F /  5.8 °C 30.4 in /  1030.0 hPa Calm   7 mph /  11.3 km/h 97 % 0.01 in /  0.3 mm
13:12 43.7 °F /  6.5 °C 43.2 °F /  6.2 °C 30.4 in /  1030.0 hPa North 3 mph /  4.8 km/h 5 mph /  8.0 km/h 98 % 0.01 in /  0.3 mm
13:17 43.5 °F /  6.4 °C 42.8 °F /  6.0 °C 30.4 in /  1030.0 hPa Calm   4 mph /  6.4 km/h 97 % 0.01 in /  0.3 mm
13:22 43.9 °F /  6.6 °C 43.2 °F /  6.2 °C 30.4 in /  1030.0 hPa Calm   4 mph /  6.4 km/h 97 % 0.01 in /  0.3 mm
13:27 44.1 °F /  6.7 °C 43.3 °F /  6.3 °C 30.4 in /  1030.0 hPa Calm   4 mph /  6.4 km/h 97 % 0.01 in /  0.3 mm
13:32 44.2 °F /  6.8 °C 43.5 °F /  6.4 °C 30.4 in /  1030.0 hPa NE 4 mph /  6.4 km/h 4 mph /  6.4 km/h 97 % 0.01 in /  0.3 mm
13:37 44.1 °F /  6.7 °C 43.3 °F /  6.3 °C 30.4 in /  1030.0 hPa East 1 mph /  1.6 km/h 4 mph /  6.4 km/h 97 % 0 in /  0.0 mm
13:42 44.4 °F /  6.9 °C 43.7 °F /  6.5 °C 30.4 in /  1029.7 hPa Calm   4 mph /  6.4 km/h 97 % 0 in /  0.0 mm
13:47 44.4 °F /  6.9 °C 43.7 °F /  6.5 °C 30.4 in /  1029.7 hPa East 1 mph /  1.6 km/h 4 mph /  6.4 km/h 97 % 0 in /  0.0 mm
13:52 44.4 °F /  6.9 °C 43.7 °F /  6.5 °C 30.4 in /  1029.7 hPa ESE 1 mph /  1.6 km/h 2 mph /  3.2 km/h 97 % 0 in /  0.0 mm
13:57 44.8 °F /  7.1 °C 44.1 °F /  6.7 °C 30.4 in /  1029.7 hPa Calm   2 mph /  3.2 km/h 97 % 0 in /  0.0 mm
14:02 45.3 °F /  7.4 °C 44.6 °F /  7.0 °C 30.4 in /  1029.3 hPa Calm   2 mph /  3.2 km/h 97 % 0 in /  0.0 mm
14:12 45.5 °F /  7.5 °C 44.4 °F /  6.9 °C 30.4 in /  1029.3 hPa Calm   2 mph /  3.2 km/h 96 % 0 in /  0.0 mm
14:17 45.7 °F /  7.6 °C 44.6 °F /  7.0 °C 30.4 in /  1029.3 hPa Calm   2 mph /  3.2 km/h 96 % 0 in /  0.0 mm
14:27 46.4 °F /  8.0 °C 45.3 °F /  7.4 °C 30.4 in /  1029.3 hPa Calm   2 mph /  3.2 km/h 96 % 0 in /  0.0 mm
14:32 46.9 °F /  8.3 °C 45.9 °F /  7.7 °C 30.4 in /  1029.3 hPa Calm   2 mph /  3.2 km/h 96 % 0 in /  0.0 mm
14:37 47.1 °F /  8.4 °C 45.7 °F /  7.6 °C 30.4 in /  1029.3 hPa Calm   1 mph /  1.6 km/h 95 % 0 in /  0.0 mm
14:42 47.3 °F /  8.5 °C 45.7 °F /  7.6 °C 30.4 in /  1029.3 hPa North 1 mph /  1.6 km/h 1 mph /  1.6 km/h 94 % 0 in /  0.0 mm
14:47 47.3 °F /  8.5 °C 45.1 °F /  7.3 °C 30.4 in /  1029.3 hPa NNW 1 mph /  1.6 km/h 3 mph /  4.8 km/h 92 % 0 in /  0.0 mm
14:52 47.5 °F /  8.6 °C 45 °F /  7.2 °C 30.4 in /  1029.0 hPa Calm   3 mph /  4.8 km/h 91 % 0 in /  0.0 mm
14:57 47.5 °F /  8.6 °C 45 °F /  7.2 °C 30.4 in /  1029.0 hPa North 1 mph /  1.6 km/h 3 mph /  4.8 km/h 91 % 0 in /  0.0 mm
15:02 47.8 °F /  8.8 °C 45 °F /  7.2 °C 30.4 in /  1029.0 hPa Calm   2 mph /  3.2 km/h 90 % 0 in /  0.0 mm
15:07 48.4 °F /  9.1 °C 45.3 °F /  7.4 °C 30.4 in /  1029.0 hPa Calm   2 mph /  3.2 km/h 89 % 0 in /  0.0 mm
15:12 48.6 °F /  9.2 °C 44.8 °F /  7.1 °C 30.4 in /  1029.0 hPa NNE 1 mph /  1.6 km/h 3 mph /  4.8 km/h 87 % 0 in /  0.0 mm
15:17 48.4 °F /  9.1 °C 44.8 °F /  7.1 °C 30.4 in /  1029.0 hPa NNE 1 mph /  1.6 km/h 3 mph /  4.8 km/h 87 % 0 in /  0.0 mm
15:22 48.4 °F /  9.1 °C 44.8 °F /  7.1 °C 30.4 in /  1029.0 hPa Calm   4 mph /  6.4 km/h 87 % 0 in /  0.0 mm
15:27 48.4 °F /  9.1 °C 44.8 °F /  7.1 °C 30.4 in /  1029.0 hPa NW 1 mph /  1.6 km/h 4 mph /  6.4 km/h 87 % 0 in /  0.0 mm
15:32 48.6 °F /  9.2 °C 44.6 °F /  7.0 °C 30.4 in /  1029.0 hPa NNE 1 mph /  1.6 km/h 4 mph /  6.4 km/h 86 % 0 in /  0.0 mm
15:37 48.6 °F /  9.2 °C 44.6 °F /  7.0 °C 30.4 in /  1029.0 hPa NE 1 mph /  1.6 km/h 3 mph /  4.8 km/h 86 % 0 in /  0.0 mm
15:42 48.7 °F /  9.3 °C 44.8 °F /  7.1 °C 30.4 in /  1028.7 hPa Calm   3 mph /  4.8 km/h 86 % 0 in /  0.0 mm
15:52 48.7 °F /  9.3 °C 44.4 °F /  6.9 °C 30.4 in /  1028.7 hPa NNW 1 mph /  1.6 km/h 3 mph /  4.8 km/h 85 % 0 in /  0.0 mm
15:57 48.7 °F /  9.3 °C 44.1 °F /  6.7 °C 30.4 in /  1028.7 hPa Calm   3 mph /  4.8 km/h 84 % 0 in /  0.0 mm
16:02 48.9 °F /  9.4 °C 44.2 °F /  6.8 °C 30.4 in /  1028.7 hPa NNW 1 mph /  1.6 km/h 4 mph /  6.4 km/h 84 % 0 in /  0.0 mm
16:12 48.9 °F /  9.4 °C 44.1 °F /  6.7 °C 30.4 in /  1028.7 hPa Calm   4 mph /  6.4 km/h 83 % 0 in /  0.0 mm
16:17 49.1 °F /  9.5 °C 44.2 °F /  6.8 °C 30.4 in /  1028.7 hPa NNE 1 mph /  1.6 km/h 3 mph /  4.8 km/h 83 % 0 in /  0.0 mm
16:22 49.3 °F /  9.6 °C 44.4 °F /  6.9 °C 30.4 in /  1028.7 hPa NE 2 mph /  3.2 km/h 3 mph /  4.8 km/h 83 % 0 in /  0.0 mm
16:32 49.1 °F /  9.5 °C 43.5 °F /  6.4 °C 30.4 in /  1028.7 hPa North 2 mph /  3.2 km/h 4 mph /  6.4 km/h 81 % 0 in /  0.0 mm
16:37 49.1 °F /  9.5 °C 44.2 °F /  6.8 °C 30.4 in /  1028.7 hPa North 1 mph /  1.6 km/h 4 mph /  6.4 km/h 83 % 0 in /  0.0 mm
16:42 49.1 °F /  9.5 °C 44.2 °F /  6.8 °C 30.4 in /  1028.7 hPa North 3 mph /  4.8 km/h 4 mph /  6.4 km/h 83 % 0 in /  0.0 mm
16:47 49.1 °F /  9.5 °C 44.2 °F /  6.8 °C 30.4 in /  1028.7 hPa NNW 2 mph /  3.2 km/h 3 mph /  4.8 km/h 83 % 0 in /  0.0 mm
16:52 49.3 °F /  9.6 °C 44.4 °F /  6.9 °C 30.4 in /  1028.3 hPa NNW 3 mph /  4.8 km/h 3 mph /  4.8 km/h 83 % 0 in /  0.0 mm
16:57 49.5 °F /  9.7 °C 44.6 °F /  7.0 °C 30.4 in /  1028.3 hPa NW 2 mph /  3.2 km/h 3 mph /  4.8 km/h 83 % 0 in /  0.0 mm
17:02 49.5 °F /  9.7 °C 44.2 °F /  6.8 °C 30.4 in /  1028.3 hPa NNW 2 mph /  3.2 km/h 4 mph /  6.4 km/h 82 % 0 in /  0.0 mm
17:07 49.3 °F /  9.6 °C 44.1 °F /  6.7 °C 30.4 in /  1028.3 hPa NNW 3 mph /  4.8 km/h 5 mph /  8.0 km/h 82 % 0 in /  0.0 mm
17:12 49.3 °F /  9.6 °C 44.1 °F /  6.7 °C 30.4 in /  1028.3 hPa North 2 mph /  3.2 km/h 5 mph /  8.0 km/h 82 % 0 in /  0.0 mm
17:17 49.3 °F /  9.6 °C 44.1 °F /  6.7 °C 30.4 in /  1028.3 hPa NNW 2 mph /  3.2 km/h 5 mph /  8.0 km/h 82 % 0 in /  0.0 mm
17:22 49.3 °F /  9.6 °C 44.4 °F /  6.9 °C 30.4 in /  1028.3 hPa NNW 1 mph /  1.6 km/h 4 mph /  6.4 km/h 83 % 0 in /  0.0 mm
17:32 48.9 °F /  9.4 °C 44.1 °F /  6.7 °C 30.4 in /  1028.3 hPa NNE 2 mph /  3.2 km/h 4 mph /  6.4 km/h 83 % 0 in /  0.0 mm
17:37 48.7 °F /  9.3 °C 43.9 °F /  6.6 °C 30.4 in /  1028.3 hPa North 1 mph /  1.6 km/h 4 mph /  6.4 km/h 83 % 0 in /  0.0 mm
17:42 48.6 °F /  9.2 °C 43.7 °F /  6.5 °C 30.4 in /  1028.3 hPa NNW 3 mph /  4.8 km/h 5 mph /  8.0 km/h 83 % 0 in /  0.0 mm
17:47 48.6 °F /  9.2 °C 43.7 °F /  6.5 °C 30.4 in /  1028.3 hPa NNW 2 mph /  3.2 km/h 5 mph /  8.0 km/h 83 % 0 in /  0.0 mm
17:52 48.4 °F /  9.1 °C 43.5 °F /  6.4 °C 30.4 in /  1028.3 hPa North 2 mph /  3.2 km/h 5 mph /  8.0 km/h 83 % 0 in /  0.0 mm
17:57 48 °F /  8.9 °C 43.2 °F /  6.2 °C 30.4 in /  1028.3 hPa North 2 mph /  3.2 km/h 5 mph /  8.0 km/h 83 % 0 in /  0.0 mm
18:02 47.8 °F /  8.8 °C 43.2 °F /  6.2 °C 30.4 in /  1028.3 hPa NNW 2 mph /  3.2 km/h 4 mph /  6.4 km/h 84 % 0 in /  0.0 mm
18:12 47.3 °F /  8.5 °C 43 °F /  6.1 °C 30.4 in /  1028.3 hPa Calm   4 mph /  6.4 km/h 85 % 0 in /  0.0 mm
18:17 46.9 °F /  8.3 °C 43 °F /  6.1 °C 30.4 in /  1028.3 hPa NNW 3 mph /  4.8 km/h 4 mph /  6.4 km/h 86 % 0 in /  0.0 mm
18:27 46.6 °F /  8.1 °C 43 °F /  6.1 °C 30.4 in /  1028.3 hPa NNW 2 mph /  3.2 km/h 3 mph /  4.8 km/h 87 % 0 in /  0.0 mm
18:32 46.4 °F /  8.0 °C 42.8 °F /  6.0 °C 30.4 in /  1028.3 hPa NNW 2 mph /  3.2 km/h 3 mph /  4.8 km/h 87 % 0 in /  0.0 mm
18:42 46 °F /  7.8 °C 42.6 °F /  5.9 °C 30.4 in /  1028.3 hPa NNW 1 mph /  1.6 km/h 3 mph /  4.8 km/h 88 % 0 in /  0.0 mm
18:52 45.7 °F /  7.6 °C 42.6 °F /  5.9 °C 30.4 in /  1028.3 hPa NNW 2 mph /  3.2 km/h 4 mph /  6.4 km/h 89 % 0 in /  0.0 mm
18:57 45.5 °F /  7.5 °C 42.4 °F /  5.8 °C 30.4 in /  1028.7 hPa NNW 3 mph /  4.8 km/h 4 mph /  6.4 km/h 89 % 0 in /  0.0 mm
19:02 45.3 °F /  7.4 °C 42.6 °F /  5.9 °C 30.4 in /  1028.7 hPa NW 3 mph /  4.8 km/h 4 mph /  6.4 km/h 90 % 0 in /  0.0 mm
19:12 45 °F /  7.2 °C 42.3 °F /  5.7 °C 30.4 in /  1028.7 hPa NNW 3 mph /  4.8 km/h 5 mph /  8.0 km/h 90 % 0 in /  0.0 mm
19:17 44.8 °F /  7.1 °C 42.1 °F /  5.6 °C 30.4 in /  1028.7 hPa NW 1 mph /  1.6 km/h 5 mph /  8.0 km/h 90 % 0 in /  0.0 mm
19:22 44.8 °F /  7.1 °C 42.1 °F /  5.6 °C 30.4 in /  1028.7 hPa NNW 3 mph /  4.8 km/h 5 mph /  8.0 km/h 90 % 0 in /  0.0 mm
19:27 44.6 °F /  7.0 °C 41.9 °F /  5.5 °C 30.4 in /  1028.7 hPa NNW 3 mph /  4.8 km/h 4 mph /  6.4 km/h 90 % 0 in /  0.0 mm
19:32 44.4 °F /  6.9 °C 41.7 °F /  5.4 °C 30.4 in /  1028.7 hPa NNW 1 mph /  1.6 km/h 4 mph /  6.4 km/h 90 % 0 in /  0.0 mm
19:37 44.4 °F /  6.9 °C 41.9 °F /  5.5 °C 30.4 in /  1028.7 hPa NNW 2 mph /  3.2 km/h 4 mph /  6.4 km/h 91 % 0 in /  0.0 mm
19:47 43.9 °F /  6.6 °C 41.4 °F /  5.2 °C 30.4 in /  1028.7 hPa North 1 mph /  1.6 km/h 3 mph /  4.8 km/h 91 % 0 in /  0.0 mm
19:52 43.7 °F /  6.5 °C 41.2 °F /  5.1 °C 30.4 in /  1028.7 hPa North 1 mph /  1.6 km/h 3 mph /  4.8 km/h 91 % 0 in /  0.0 mm
19:57 43.7 °F /  6.5 °C 41.5 °F /  5.3 °C 30.4 in /  1028.7 hPa NNW 2 mph /  3.2 km/h 2 mph /  3.2 km/h 92 % 0 in /  0.0 mm
20:02 43.9 °F /  6.6 °C 41.7 °F /  5.4 °C 30.4 in /  1028.7 hPa North 1 mph /  1.6 km/h 3 mph /  4.8 km/h 92 % 0 in /  0.0 mm
20:12 43.5 °F /  6.4 °C 41 °F /  5.0 °C 30.4 in /  1028.7 hPa NNW 1 mph /  1.6 km/h 3 mph /  4.8 km/h 91 % 0 in /  0.0 mm
20:17 43.5 °F /  6.4 °C 41 °F /  5.0 °C 30.4 in /  1028.7 hPa NNW 1 mph /  1.6 km/h 3 mph /  4.8 km/h 91 % 0 in /  0.0 mm
20:22 43.3 °F /  6.3 °C 40.8 °F /  4.9 °C 30.4 in /  1028.7 hPa North 1 mph /  1.6 km/h 3 mph /  4.8 km/h 91 % 0 in /  0.0 mm
20:27 43 °F /  6.1 °C 40.8 °F /  4.9 °C 30.4 in /  1028.3 hPa North 1 mph /  1.6 km/h 3 mph /  4.8 km/h 92 % 0 in /  0.0 mm
20:32 43 °F /  6.1 °C 40.8 °F /  4.9 °C 30.4 in /  1028.7 hPa NNE 1 mph /  1.6 km/h 3 mph /  4.8 km/h 92 % 0 in /  0.0 mm
20:37 43 °F /  6.1 °C 40.8 °F /  4.9 °C 30.4 in /  1028.3 hPa North 1 mph /  1.6 km/h 3 mph /  4.8 km/h 92 % 0 in /  0.0 mm
20:42 43 °F /  6.1 °C 40.8 °F /  4.9 °C 30.4 in /  1028.3 hPa NNE 2 mph /  3.2 km/h 3 mph /  4.8 km/h 92 % 0 in /  0.0 mm
20:47 43 °F /  6.1 °C 40.5 °F /  4.7 °C 30.4 in /  1028.3 hPa NNE 1 mph /  1.6 km/h 3 mph /  4.8 km/h 91 % 0 in /  0.0 mm
20:52 42.6 °F /  5.9 °C 40.1 °F /  4.5 °C 30.4 in /  1028.7 hPa NNE 3 mph /  4.8 km/h 3 mph /  4.8 km/h 91 % 0 in /  0.0 mm
20:57 42.4 °F /  5.8 °C 40.3 °F /  4.6 °C 30.4 in /  1028.7 hPa Calm   5 mph /  8.0 km/h 92 % 0 in /  0.0 mm
21:02 42.4 °F /  5.8 °C 40.3 °F /  4.6 °C 30.4 in /  1028.7 hPa North 3 mph /  4.8 km/h 5 mph /  8.0 km/h 92 % 0 in /  0.0 mm
21:07 42.6 °F /  5.9 °C 40.5 °F /  4.7 °C 30.4 in /  1028.7 hPa NNW 2 mph /  3.2 km/h 5 mph /  8.0 km/h 92 % 0 in /  0.0 mm
21:12 42.6 °F /  5.9 °C 40.5 °F /  4.7 °C 30.4 in /  1028.7 hPa North 2 mph /  3.2 km/h 4 mph /  6.4 km/h 92 % 0 in /  0.0 mm
21:22 42.4 °F /  5.8 °C 39.9 °F /  4.4 °C 30.4 in /  1028.7 hPa North 2 mph /  3.2 km/h 4 mph /  6.4 km/h 91 % 0 in /  0.0 mm
21:27 42.3 °F /  5.7 °C 39.7 °F /  4.3 °C 30.4 in /  1028.7 hPa North 4 mph /  6.4 km/h 4 mph /  6.4 km/h 91 % 0 in /  0.0 mm
21:32 42.1 °F /  5.6 °C 39.9 °F /  4.4 °C 30.4 in /  1028.7 hPa NNW 2 mph /  3.2 km/h 4 mph /  6.4 km/h 92 % 0 in /  0.0 mm
21:37 42.3 °F /  5.7 °C 40.5 °F /  4.7 °C 30.4 in /  1028.7 hPa North 4 mph /  6.4 km/h 6 mph /  9.7 km/h 93 % 0 in /  0.0 mm
21:42 42.3 °F /  5.7 °C 40.5 °F /  4.7 °C 30.4 in /  1028.7 hPa NE 2 mph /  3.2 km/h 6 mph /  9.7 km/h 93 % 0 in /  0.0 mm
21:47 42.3 °F /  5.7 °C 40.5 °F /  4.7 °C 30.4 in /  1028.7 hPa North 4 mph /  6.4 km/h 6 mph /  9.7 km/h 93 % 0 in /  0.0 mm
21:52 42.3 °F /  5.7 °C 40.1 °F /  4.5 °C 30.4 in /  1028.7 hPa NNE 2 mph /  3.2 km/h 5 mph /  8.0 km/h 92 % 0 in /  0.0 mm
21:57 42.3 °F /  5.7 °C 40.1 °F /  4.5 °C 30.4 in /  1028.7 hPa NE 2 mph /  3.2 km/h 5 mph /  8.0 km/h 92 % 0 in /  0.0 mm
22:02 42.1 °F /  5.6 °C 39.9 °F /  4.4 °C 30.4 in /  1028.7 hPa North 3 mph /  4.8 km/h 6 mph /  9.7 km/h 92 % 0 in /  0.0 mm
22:07 41.7 °F /  5.4 °C 39.6 °F /  4.2 °C 30.4 in /  1028.7 hPa North 1 mph /  1.6 km/h 6 mph /  9.7 km/h 92 % 0 in /  0.0 mm
22:17 41.5 °F /  5.3 °C 39.7 °F /  4.3 °C 30.4 in /  1028.3 hPa North 4 mph /  6.4 km/h 6 mph /  9.7 km/h 93 % 0 in /  0.0 mm
22:22 41.7 °F /  5.4 °C 39.6 °F /  4.2 °C 30.4 in /  1028.3 hPa NE 3 mph /  4.8 km/h 6 mph /  9.7 km/h 92 % 0 in /  0.0 mm
22:27 41.7 °F /  5.4 °C 39.6 °F /  4.2 °C 30.4 in /  1028.3 hPa North 1 mph /  1.6 km/h 6 mph /  9.7 km/h 92 % 0 in /  0.0 mm
22:32 41.7 °F /  5.4 °C 39.6 °F /  4.2 °C 30.4 in /  1028.3 hPa ENE 4 mph /  6.4 km/h 6 mph /  9.7 km/h 92 % 0 in /  0.0 mm
22:37 41.7 °F /  5.4 °C 39.6 °F /  4.2 °C 30.4 in /  1028.3 hPa Calm   5 mph /  8.0 km/h 92 % 0 in /  0.0 mm
22:42 41.5 °F /  5.3 °C 39.2 °F /  4.0 °C 30.4 in /  1028.3 hPa Calm   5 mph /  8.0 km/h 91 % 0 in /  0.0 mm
22:47 41.4 °F /  5.2 °C 39.2 °F /  4.0 °C 30.4 in /  1028.3 hPa Calm   4 mph /  6.4 km/h 92 % 0 in /  0.0 mm
22:57 41.5 °F /  5.3 °C 39.4 °F /  4.1 °C 30.4 in /  1028.3 hPa NE 1 mph /  1.6 km/h 3 mph /  4.8 km/h 92 % 0 in /  0.0 mm
23:02 41.7 °F /  5.4 °C 39.6 °F /  4.2 °C 30.4 in /  1028.3 hPa NNE 3 mph /  4.8 km/h 3 mph /  4.8 km/h 92 % 0 in /  0.0 mm
23:07 41.7 °F /  5.4 °C 39.2 °F /  4.0 °C 30.4 in /  1028.3 hPa North 3 mph /  4.8 km/h 7 mph /  11.3 km/h 91 % 0 in /  0.0 mm
23:12 41.7 °F /  5.4 °C 39.2 °F /  4.0 °C 30.4 in /  1028.3 hPa NNE 3 mph /  4.8 km/h 7 mph /  11.3 km/h 91 % 0 in /  0.0 mm
23:17 41.7 °F /  5.4 °C 39 °F /  3.9 °C 30.4 in /  1028.3 hPa Calm   7 mph /  11.3 km/h 90 % 0 in /  0.0 mm
23:22 41.4 °F /  5.2 °C 39 °F /  3.9 °C 30.4 in /  1028.3 hPa NNE 1 mph /  1.6 km/h 7 mph /  11.3 km/h 91 % 0 in /  0.0 mm
23:32 41.2 °F /  5.1 °C 38.8 °F /  3.8 °C 30.4 in /  1028.3 hPa North 1 mph /  1.6 km/h 4 mph /  6.4 km/h 91 % 0 in /  0.0 mm
23:37 41.2 °F /  5.1 °C 38.8 °F /  3.8 °C 30.4 in /  1028.0 hPa Calm   2 mph /  3.2 km/h 91 % 0 in /  0.0 mm
23:42 41.2 °F /  5.1 °C 38.8 °F /  3.8 °C 30.4 in /  1028.0 hPa Calm   2 mph /  3.2 km/h 91 % 0 in /  0.0 mm
23:52 40.8 °F /  4.9 °C 38.5 °F /  3.6 °C 30.4 in /  1028.0 hPa Calm   2 mph /  3.2 km/h 91 % 0 in /  0.0 mm
23:57 40.6 °F /  4.8 °C 38.3 °F /  3.5 °C 30.4 in /  1028.0 hPa Calm   2 mph /  3.2 km/h 91 % 0 in /  0.0 mm
Meteo18
Compliments of Weather Underground - 4 mb

Script developed by  Jim McMurry - jmcmurry@mwt.net Adapted for the template by  Wim van der Kuil - Leuven-Template.eu

You find our weather info also at:

European Weather Network

Weather Underground

Equipment we use:

Weather-station
Davis Vue

Weather-program
Meteohub

Weather-server
Raspberry PI 2 B+

Provider
1 and 1

Davis Vue

Meteohub

Raspberry PI 2 B+

1 and 1